KHKA/HKA METAR and TAF weather

Enter ICAO airport designator
Station Type Date Time Source
KHKA METAR 2024/04/18 06:53 UTC NOAA

KHKA 180653Z AUTO 19007KT 9SM CLR 21/18 A2998 RMK AO2 SLP149 T02060178 $


Station Type Date Time Source
KHKA Decoded METAR 2024/04/18 06:53 UTC NOAA

BLYTHEVILLE MUNICIPAL AIRPORT , AR, United States (KHKA) 35-56N 89-50W 78M
Apr 18, 2024 - 02:53 AM EDT / 2024.04.18 0653 UTC
Wind: from the S (190 degrees) at 8 MPH (7 KT):0
Visibility: 9 mile(s):0
Sky conditions: clear
Temperature: 69.1 F (20.6 C)
Dew Point: 64.0 F (17.8 C)
Relative Humidity: 83%
Pressure (altimeter): 29.98 in. Hg (1015 hPa)
ob: KHKA 180653Z AUTO 19007KT 9SM CLR 21/18 A2998 RMK AO2 SLP149 T02060178
cycle: 7

Station Type Date Time Source
KHKA TAF UTC NOAA

Error!

Example: see airport list